Time;durP1;ratioP1;P1;durP2;ratioP2;P2;SDS_P1;SDS_P2;PMS_P1;PMS_P2;Temp;Humidity;BMP_temperature;BMP_pressure;BME280_temperature;BME280_humidity;BME280_pressure;Samples;Min_cycle;Max_cycle;Signal;HPM_P1;HPM_P2
2023/10/16 00:02:31;;;;;;;1999.90;999.90;;;;;;;14.65;59.11;102261.66;10439282;28;19929;-62
2023/10/16 00:07:33;;;;;;;1999.90;999.90;;;;;;;14.18;60.36;102267.50;10355569;28;20099;-61
2023/10/16 00:12:36;;;;;;;1999.90;999.90;;;;;;;14.39;58.86;102270.00;10355659;28;20057;-61
2023/10/16 00:17:39;;;;;;;1999.90;999.90;;;;;;;14.37;59.71;102266.59;10372964;28;20050;-61
2023/10/16 00:22:43;;;;;;;1999.90;999.90;;;;;;;13.41;60.74;102267.66;10354849;28;20099;-61
2023/10/16 00:27:47;;;;;;;1999.90;999.90;;;;;;;13.72;60.74;102265.31;10355694;28;20050;-61
2023/10/16 00:32:50;;;;;;;1999.90;999.90;;;;;;;13.91;59.71;102273.19;10372472;28;20050;-61
2023/10/16 00:37:55;;;;;;;1999.90;999.90;;;;;;;14.43;60.34;102267.13;10371778;28;20129;-61
2023/10/16 00:43:17;;;;;;;1999.90;999.90;;;;;;;14.71;58.28;102270.19;10371646;28;20500;-61
2023/10/16 00:48:19;;;;;;;1999.90;999.90;;;;;;;14.23;59.47;102267.28;10371488;28;20050;-61
2023/10/16 00:53:27;;;;;;;1999.90;999.90;;;;;;;14.28;60.96;102268.75;10354466;28;20042;-61
2023/10/16 00:58:30;;;;;;;1999.90;999.90;;;;;;;14.63;59.33;102262.69;10354976;28;20073;-62
2023/10/16 01:03:36;;;;;;;1999.90;999.90;;;;;;;14.11;59.26;102263.47;10370464;28;20057;-61
2023/10/16 01:08:44;;;;;;;1999.90;999.90;;;;;;;13.86;60.11;102259.38;10353626;28;20094;-61
2023/10/16 01:13:47;;;;;;;1999.90;999.90;;;;;;;14.65;58.21;102259.00;10353896;28;20046;-61
2023/10/16 01:18:50;;;;;;;1999.90;999.90;;;;;;;14.31;58.95;102258.06;10371035;28;20050;-61
2023/10/16 01:23:52;;;;;;;1999.90;999.90;;;;;;;14.72;58.03;102253.44;10370891;28;20049;-61
2023/10/16 01:28:54;;;;;;;1999.90;999.90;;;;;;;13.78;61.31;102240.47;10370082;28;20680;-61
2023/10/16 01:33:57;;;;;;;1999.90;999.90;;;;;;;14.51;58.78;102229.88;10336863;28;20414;-61
2023/10/16 01:39:06;;;;;;;1999.90;999.90;;;;;;;14.67;58.28;102224.66;10370428;28;20045;-61
2023/10/16 01:44:09;;;;;;;1999.90;999.90;;;;;;;14.00;58.83;102223.63;10370103;28;20491;-61
2023/10/16 01:49:12;;;;;;;1999.90;999.90;;;;;;;14.33;57.99;102221.09;10369456;28;20099;-62
2023/10/16 01:54:15;;;;;;;1999.90;999.90;;;;;;;14.18;58.34;102228.00;10352495;28;20042;-62
2023/10/16 01:59:21;;;;;;;1999.90;999.90;;;;;;;13.98;59.66;102228.97;10352495;28;20103;-61
2023/10/16 02:04:23;;;;;;;1999.90;999.90;;;;;;;14.16;60.22;102221.13;10369603;28;20053;-61
2023/10/16 02:09:26;;;;;;;1999.90;999.90;;;;;;;14.37;59.37;102227.91;10351507;28;20099;-61
2023/10/16 02:14:28;;;;;;;1999.90;999.90;;;;;;;14.26;59.57;102222.34;10350590;28;20482;-61
2023/10/16 02:19:31;;;;;;;1999.90;999.90;;;;;;;14.55;58.83;102220.84;10369160;28;20046;-61
2023/10/16 02:24:34;;;;;;;1999.90;999.90;;;;;;;14.43;58.92;102217.06;10369049;28;20120;-61
2023/10/16 02:29:37;;;;;;;1999.90;999.90;;;;;;;14.67;59.29;102217.59;10368918;28;20129;-61
2023/10/16 02:34:41;;;;;;;1999.90;999.90;;;;;;;14.85;57.90;102218.44;10368726;28;20071;-61
2023/10/16 02:39:50;;;;;;;1999.90;999.90;;;;;;;14.58;58.94;102223.34;10351405;28;20391;-61
2023/10/16 02:44:54;;;;;;;1999.90;999.90;;;;;;;14.33;59.81;102215.84;10368525;28;20049;-61
2023/10/16 02:49:59;;;;;;;1999.90;999.90;;;;;;;14.94;58.19;102211.81;10368419;28;20054;-62
2023/10/16 02:55:01;;;;;;;1999.90;999.90;;;;;;;14.42;58.61;102206.59;10350206;28;20398;-62
2023/10/16 03:00:07;;;;;;;1999.90;999.90;;;;;;;14.34;58.93;102204.38;10350821;28;20053;-61
2023/10/16 03:05:11;;;;;;;1999.90;999.90;;;;;;;14.59;58.75;102204.00;10367821;28;20082;-62
2023/10/16 03:10:14;;;;;;;1999.90;999.90;;;;;;;14.57;59.29;102204.97;10367295;28;20505;-61
2023/10/16 03:15:20;;;;;;;1999.90;999.90;;;;;;;14.14;59.69;102210.66;10367054;28;20057;-61
2023/10/16 03:20:35;;;;;;;1999.90;999.90;;;;;;;15.19;58.15;102213.97;10350210;28;20049;-62
2023/10/16 03:30:43;;;;;;;1999.90;999.90;;;;;;;15.22;57.98;102211.19;10374470;28;20141;-61
2023/10/16 03:35:49;;;;;;;1999.90;999.90;;;;;;;15.32;57.91;102206.25;10356317;28;20078;-61
2023/10/16 03:40:52;;;;;;;1999.90;999.90;;;;;;;15.14;57.50;102207.25;10374206;28;20125;-61
2023/10/16 03:45:54;;;;;;;1999.90;999.90;;;;;;;13.88;60.62;102204.03;10356746;28;20124;-61
2023/10/16 03:51:00;;;;;;;1999.90;999.90;;;;;;;14.18;60.64;102212.19;10373828;28;20111;-62
2023/10/16 03:56:04;;;;;;;1999.90;999.90;;;;;;;14.66;59.46;102215.91;10373587;28;20052;-62
2023/10/16 04:01:07;;;;;;;1999.90;999.90;;;;;;;14.56;59.38;102204.13;10372822;28;20476;-62
2023/10/16 04:06:10;;;;;;;1999.90;999.90;;;;;;;15.01;58.72;102196.50;10372503;28;20082;-62
2023/10/16 04:11:12;;;;;;;1999.90;999.90;;;;;;;14.79;58.80;102194.19;10339126;28;20505;-62
2023/10/16 04:16:42;;;;;;;1999.90;999.90;;;;;;;15.57;58.04;102182.00;10372945;28;20056;-62
2023/10/16 04:37:36;;;;;;;1999.90;999.90;;;;;;;14.72;59.29;102174.34;10356950;28;20050;-61
2023/10/16 04:58:27;;;;;;;1999.90;999.90;;;;;;;15.28;57.98;102146.69;10353763;28;20052;-62
2023/10/16 05:03:35;;;;;;;1999.90;999.90;;;;;;;15.56;57.50;102142.47;10370877;28;20137;-61
2023/10/16 06:17:54;;;;;;;1999.90;999.90;;;;;;;15.91;57.05;102156.31;10540535;28;20097;-62
2023/10/16 06:22:58;;;;;;;1999.90;999.90;;;;;;;16.12;56.84;102155.97;10539694;28;20048;-62
2023/10/16 06:28:00;;;;;;;1999.90;999.90;;;;;;;16.64;55.71;102151.97;10540200;28;20101;-62
2023/10/16 06:33:02;;;;;;;1999.90;999.90;;;;;;;16.23;56.01;102156.19;10539412;28;20508;-62
2023/10/16 06:38:11;;;;;;;1999.90;999.90;;;;;;;16.07;56.43;102166.84;10539376;28;20449;-62
2023/10/16 06:43:14;;;;;;;1999.90;999.90;;;;;;;16.57;56.26;102159.44;10539976;28;20051;-62
2023/10/16 06:48:16;;;;;;;1999.90;999.90;;;;;;;16.68;54.94;102156.16;10539114;28;20488;-62
2023/10/16 06:53:19;;;;;;;1999.90;999.90;;;;;;;16.63;56.36;102153.78;10521763;28;20044;-62
2023/10/16 06:58:21;;;;;;;1999.90;999.90;;;;;;;16.15;55.61;102158.44;10521193;28;20051;-62
2023/10/16 07:03:24;;;;;;;1999.90;999.90;;;;;;;16.04;56.42;102163.50;10544517;28;20044;-62
2023/10/16 07:08:27;;;;;;;1999.90;999.90;;;;;;;16.52;55.83;102165.03;10547695;28;20048;-62
2023/10/16 07:13:34;;;;;;;1999.90;999.90;;;;;;;16.33;56.44;102162.63;10528854;28;20480;-62
2023/10/16 07:18:42;;;;;;;1999.90;999.90;;;;;;;17.16;54.78;102167.25;10530185;28;20059;-62
2023/10/16 07:23:45;;;;;;;1999.90;999.90;;;;;;;16.74;54.98;102158.41;10546316;28;20056;-62
2023/10/16 07:28:50;;;;;;;1999.90;999.90;;;;;;;17.54;53.83;102157.81;10546956;28;20062;-62
2023/10/16 07:33:59;;;;;;;1999.90;999.90;;;;;;;16.89;54.89;102167.22;10546726;28;20064;-62
2023/10/16 07:39:02;;;;;;;1999.90;999.90;;;;;;;17.63;53.47;102159.84;10546562;28;20052;-62
2023/10/16 07:44:06;;;;;;;1999.90;999.90;;;;;;;17.54;54.78;102174.53;10546353;28;20051;-62
2023/10/16 07:49:15;;;;;;;1999.90;999.90;;;;;;;18.08;53.64;102165.72;10528264;28;20054;-62
2023/10/16 07:54:18;;;;;;;1999.90;999.90;;;;;;;18.27;52.17;102167.97;10528964;28;20090;-65
2023/10/16 07:59:21;;;;;;;1999.90;999.90;;;;;;;18.16;52.80;102160.75;10527183;28;20495;-66
2023/10/16 08:14:32;;;;;;;1999.90;999.90;;;;;;;18.73;52.41;102174.56;10525289;28;20480;-66
2023/10/16 08:19:35;;;;;;;1999.90;999.90;;;;;;;18.74;52.02;102173.56;10544844;28;20050;-67
2023/10/16 08:24:43;;;;;;;1999.90;999.90;;;;;;;19.77;53.02;102173.31;10544810;28;20044;-66
2023/10/16 08:29:58;;;;;;;1999.90;999.90;;;;;;;20.00;50.94;102161.78;10544573;28;20052;-67
2023/10/16 08:35:08;;;;;;;1999.90;999.90;;;;;;;18.74;52.38;102170.91;10543675;28;20044;-66
2023/10/16 08:40:19;;;;;;;1999.90;999.90;;;;;;;19.78;51.63;102172.34;10544197;28;20086;-67
2023/10/16 08:45:25;;;;;;;1999.90;999.90;;;;;;;19.78;51.04;102170.53;10543413;28;20044;-66
2023/10/16 08:50:44;;;;;;;1999.90;999.90;;;;;;;20.35;50.52;102166.22;10526201;28;20130;-66
2023/10/16 08:55:46;;;;;;;1999.90;999.90;;;;;;;20.90;49.55;102170.88;10543469;28;20048;-67
2023/10/16 09:00:49;;;;;;;1999.90;999.90;;;;;;;20.40;49.10;102161.38;10524810;28;20048;-67
2023/10/16 09:05:51;;;;;;;1999.90;999.90;;;;;;;22.88;49.53;102169.47;10507983;28;20048;-69
2023/10/16 09:10:54;;;;;;;1999.90;999.90;;;;;;;23.14;45.53;102169.81;10524479;28;20411;-70
2023/10/16 09:15:57;;;;;;;1999.90;999.90;;;;;;;22.16;45.87;102165.84;10524802;28;20154;-70
2023/10/16 09:21:00;;;;;;;1999.90;999.90;;;;;;;22.30;45.60;102166.53;10523908;28;20511;-70
2023/10/16 09:26:06;;;;;;;1999.90;999.90;;;;;;;22.47;48.54;102170.41;10524251;28;20052;-70
2023/10/16 09:31:09;;;;;;;1999.90;999.90;;;;;;;23.81;45.09;102163.84;10524784;28;20083;-68
2023/10/16 09:36:18;;;;;;;1999.90;999.90;;;;;;;23.98;44.61;102162.28;10524342;28;20127;-68
2023/10/16 09:41:38;;;;;;;1999.90;999.90;;;;;;;24.19;44.36;102171.00;10523329;28;20408;-68
2023/10/16 09:51:59;;;;;;;1999.90;999.90;;;;;;;23.40;42.95;102179.97;10523648;28;20501;-68
2023/10/16 09:57:08;;;;;;;1999.90;999.90;;;;;;;24.70;43.87;102171.53;10524449;28;20055;-68
2023/10/16 10:02:21;;;;;;;1999.90;999.90;;;;;;;22.88;43.19;102174.81;10523012;28;20043;-68
2023/10/16 10:07:34;;;;;;;1999.90;999.90;;;;;;;22.05;46.83;102173.91;10523522;28;20118;-68
2023/10/16 10:12:42;;;;;;;1999.90;999.90;;;;;;;24.43;42.67;102170.50;10523677;28;20480;-68
2023/10/16 10:17:47;;;;;;;1999.90;999.90;;;;;;;24.00;45.96;102174.53;10539810;28;20564;-68
2023/10/16 10:22:57;;;;;;;1999.90;999.90;;;;;;;24.57;43.77;102171.88;10521558;28;20059;-68
2023/10/16 10:28:10;;;;;;;1999.90;999.90;;;;;;;22.82;43.31;102170.00;10540302;28;20044;-68
2023/10/16 10:33:34;;;;;;;1999.90;999.90;;;;;;;22.62;45.64;102172.56;10540082;28;20055;-68
2023/10/16 10:38:36;;;;;;;1999.90;999.90;;;;;;;21.98;46.46;102165.59;10539820;28;20097;-68
2023/10/16 10:43:49;;;;;;;1999.90;999.90;;;;;;;22.53;44.36;102161.88;10539233;28;20408;-68
2023/10/16 10:48:54;;;;;;;1999.90;999.90;;;;;;;22.42;46.70;102152.13;10539789;28;20048;-68
2023/10/16 10:54:03;;;;;;;1999.90;999.90;;;;;;;25.03;42.38;102143.31;10522263;28;20083;-61
2023/10/16 10:59:09;;;;;;;1999.90;999.90;;;;;;;23.10;44.64;102146.19;10539697;28;20052;-61
2023/10/16 11:04:15;;;;;;;1999.90;999.90;;;;;;;22.54;43.68;102140.38;10539405;28;20443;-70
2023/10/16 11:09:26;;;;;;;1999.90;999.90;;;;;;;22.84;42.60;102135.97;10521760;28;20094;-61
2023/10/16 11:14:39;;;;;;;1999.90;999.90;;;;;;;23.43;42.25;102123.59;10522200;28;20048;-61
2023/10/16 11:19:49;;;;;;;1999.90;999.90;;;;;;;24.56;43.12;102116.66;10521054;28;20058;-61
2023/10/16 11:24:51;;;;;;;1999.90;999.90;;;;;;;23.63;42.65;102115.56;10539230;28;20044;-61
2023/10/16 11:29:54;;;;;;;1999.90;999.90;;;;;;;22.86;46.12;102120.66;10521107;28;20052;-61
2023/10/16 11:35:13;;;;;;;1999.90;999.90;;;;;;;23.55;44.48;102111.78;10538204;28;20471;-61
2023/10/16 11:40:18;;;;;;;1999.90;999.90;;;;;;;23.30;44.00;102112.34;10538844;28;20054;-61
2023/10/16 11:45:23;;;;;;;1999.90;999.90;;;;;;;23.53;44.65;102097.69;10538195;28;20052;-62
2023/10/16 11:50:38;;;;;;;1999.90;999.90;;;;;;;23.18;44.55;102100.94;10526492;28;20054;-61
2023/10/16 11:55:42;;;;;;;1999.90;999.90;;;;;;;22.43;46.23;102101.28;10546005;28;20083;-61
2023/10/16 12:00:57;;;;;;;1999.90;999.90;;;;;;;23.07;43.00;102091.22;10528028;28;20044;-61
2023/10/16 12:05:59;;;;;;;1999.90;999.90;;;;;;;23.11;43.44;102097.13;10544977;28;20416;-61
2023/10/16 12:11:03;;;;;;;1999.90;999.90;;;;;;;23.71;43.14;102083.63;10545430;28;20048;-62
2023/10/16 12:16:06;;;;;;;1999.90;999.90;;;;;;;21.60;43.81;102080.84;10545075;28;20112;-61
2023/10/16 12:21:21;;;;;;;1999.90;999.90;;;;;;;22.16;42.44;102079.66;10528879;28;20105;-61
2023/10/16 12:26:25;;;;;;;1999.90;999.90;;;;;;;22.52;43.69;102077.44;10526288;28;20382;-61
2023/10/16 12:31:27;;;;;;;1999.90;999.90;;;;;;;22.54;44.28;102076.31;10543937;28;20413;-62
2023/10/16 12:36:31;;;;;;;1999.90;999.90;;;;;;;22.57;41.25;102068.03;10526345;28;20051;-61
2023/10/16 12:41:33;;;;;;;1999.90;999.90;;;;;;;22.27;44.05;102063.56;10543972;28;20531;-61
2023/10/16 12:46:43;;;;;;;1999.90;999.90;;;;;;;21.96;46.43;102065.38;10543953;28;20105;-60
2023/10/16 12:51:46;;;;;;;1999.90;999.90;;;;;;;21.39;44.39;102062.16;10526246;28;20541;-60
2023/10/16 12:56:48;;;;;;;1999.90;999.90;;;;;;;19.70;46.35;102060.44;10525601;28;20101;-60
2023/10/16 13:01:52;;;;;;;1999.90;999.90;;;;;;;21.28;47.12;102063.03;10542077;28;20477;-60
2023/10/16 13:06:54;;;;;;;1999.90;999.90;;;;;;;21.14;47.56;102056.22;10543155;28;20051;-60
2023/10/16 13:11:57;;;;;;;1999.90;999.90;;;;;;;21.23;46.13;102055.47;10542970;28;20083;-59
2023/10/16 13:16:59;;;;;;;1999.90;999.90;;;;;;;21.47;48.32;102065.06;10542039;28;20485;-60
2023/10/16 13:22:10;;;;;;;1999.90;999.90;;;;;;;21.64;46.78;102061.81;10542191;28;20059;-60
2023/10/16 13:27:16;;;;;;;;;;;;;;;21.82;45.67;102050.56;10542635;28;20538;-60
2023/10/16 13:32:20;;;;;;;1999.90;999.90;;;;;;;21.96;47.11;102050.22;10541513;28;20291;-60
2023/10/16 13:37:23;;;;;;;1999.90;999.90;;;;;;;21.56;47.26;102039.47;10541396;28;20087;-60
2023/10/16 13:42:28;;;;;;;1999.90;999.90;;;;;;;20.48;46.37;102042.91;10541193;28;20417;-60
2023/10/16 13:47:32;;;;;;;1999.90;999.90;;;;;;;21.20;45.90;102041.53;10540960;28;20086;-60
2023/10/16 13:52:36;;;;;;;1999.90;999.90;;;;;;;21.54;47.04;102044.09;10541405;28;20058;-60
2023/10/16 13:57:42;;;;;;;1999.90;999.90;;;;;;;21.29;47.20;102036.28;10541213;28;20127;-59
2023/10/16 14:02:45;;;;;;;1999.90;999.90;;;;;;;21.41;46.26;102034.41;10541536;28;20123;-60
2023/10/16 14:07:47;;;;;;;1999.90;999.90;;;;;;;20.89;47.25;102036.91;10541157;28;20082;-59
2023/10/16 14:13:00;;;;;;;1999.90;999.90;;;;;;;21.35;48.34;102029.63;10539797;28;20136;-60
2023/10/16 14:18:03;;;;;;;1999.90;999.90;;;;;;;21.17;48.00;102028.50;10540199;28;20048;-60
2023/10/16 14:23:10;;;;;;;1999.90;999.90;;;;;;;19.67;50.29;102027.84;10539943;28;20131;-59
2023/10/16 14:28:35;;;;;;;1999.90;999.90;;;;;;;20.96;48.25;102021.28;10540495;28;20119;-59
2023/10/16 14:33:37;;;;;;;1999.90;999.90;;;;;;;20.64;48.70;102019.44;10540228;28;20052;-60
2023/10/16 14:38:41;;;;;;;1999.90;999.90;;;;;;;21.44;48.01;102014.69;10539960;28;20044;-60
2023/10/16 14:43:47;;;;;;;1999.90;999.90;;;;;;;21.11;48.73;102021.84;10540016;28;20052;-60
2023/10/16 14:48:53;;;;;;;1999.90;999.90;;;;;;;20.48;47.81;102017.16;10522135;28;20052;-60
2023/10/16 14:53:56;;;;;;;1999.90;999.90;;;;;;;20.80;48.80;102016.38;10539677;28;20051;-60
2023/10/16 14:58:59;;;;;;;1999.90;999.90;;;;;;;20.75;48.75;102010.59;10539686;28;20123;-60
2023/10/16 15:04:05;;;;;;;1999.90;999.90;;;;;;;20.70;49.18;102015.44;10540235;28;20056;-60
2023/10/16 15:09:15;;;;;;;1999.90;999.90;;;;;;;20.30;49.53;102011.47;10521635;28;20048;-59
2023/10/16 15:14:18;;;;;;;1999.90;999.90;;;;;;;20.49;49.49;101996.72;10539378;28;20048;-59
2023/10/16 15:19:20;;;;;;;1999.90;999.90;;;;;;;20.08;51.98;102006.19;10539245;28;20290;-59
2023/10/16 15:24:22;;;;;;;1999.90;999.90;;;;;;;20.11;52.54;102008.59;10543203;28;20135;-59
2023/10/16 15:29:26;;;;;;;1999.90;999.90;;;;;;;19.68;53.55;101996.81;10546441;28;20412;-59
2023/10/16 15:34:28;;;;;;;1999.90;999.90;;;;;;;19.78;53.51;101995.16;10546179;28;20447;-59
2023/10/16 15:39:32;;;;;;;1999.90;999.90;;;;;;;19.57;54.87;101999.44;10546722;28;20123;-60
2023/10/16 15:44:34;;;;;;;1999.90;999.90;;;;;;;19.61;54.88;101999.09;10546532;28;20044;-59
2023/10/16 15:49:38;;;;;;;1999.90;999.90;;;;;;;19.20;56.21;101992.47;10546518;28;20123;-59
2023/10/16 15:54:42;;;;;;;1999.90;999.90;;;;;;;19.35;55.81;101992.25;10545977;28;20051;-60
2023/10/16 15:59:44;;;;;;;1999.90;999.90;;;;;;;18.67;57.35;101984.81;10545193;28;20485;-61
2023/10/16 16:04:50;;;;;;;1999.90;999.90;;;;;;;18.69;58.32;101993.53;10527097;28;20051;-60
2023/10/16 16:09:53;;;;;;;1999.90;999.90;;;;;;;18.60;58.07;101996.84;10544894;28;20102;-61
2023/10/16 16:14:55;;;;;;;1999.90;999.90;;;;;;;18.54;57.95;101990.19;10545238;28;20154;-60
2023/10/16 16:19:57;;;;;;;1999.90;999.90;;;;;;;18.39;58.42;101999.22;10544765;28;20075;-61
2023/10/16 16:25:01;;;;;;;1999.90;999.90;;;;;;;18.32;58.03;102014.72;10544192;28;20397;-60
2023/10/16 16:30:05;;;;;;;1999.90;999.90;;;;;;;18.09;58.76;102012.84;10526515;28;20459;-60
2023/10/16 16:35:07;;;;;;;1999.90;999.90;;;;;;;18.08;58.80;102016.47;10543466;28;20046;-61
2023/10/16 16:40:10;;;;;;;1999.90;999.90;;;;;;;17.72;58.39;102013.59;10543697;28;20098;-60
2023/10/16 16:45:13;;;;;;;1999.90;999.90;;;;;;;17.53;58.85;102016.63;10544303;28;20123;-60
2023/10/16 16:50:17;;;;;;;1999.90;999.90;;;;;;;17.62;58.50;102017.81;10543890;28;20104;-61
2023/10/16 16:55:20;;;;;;;1999.90;999.90;;;;;;;17.22;58.70;102020.50;10543565;28;20074;-60
2023/10/16 17:00:26;;;;;;;1999.90;999.90;;;;;;;17.24;58.45;102015.94;10542812;28;20127;-60
2023/10/16 17:05:29;;;;;;;1999.90;999.90;;;;;;;16.98;59.06;102015.84;10526146;28;20048;-60
2023/10/16 17:10:31;;;;;;;1999.90;999.90;;;;;;;16.98;58.88;102022.94;10542975;28;20105;-60
2023/10/16 17:15:34;;;;;;;1999.90;999.90;;;;;;;16.96;58.59;102015.09;10542076;28;20536;-60
2023/10/16 17:20:37;;;;;;;1999.90;999.90;;;;;;;16.93;58.65;102010.03;10542372;28;20062;-60
2023/10/16 17:25:40;;;;;;;1999.90;999.90;;;;;;;16.96;57.48;102015.09;10542410;28;20040;-60
2023/10/16 17:30:42;;;;;;;1999.90;999.90;;;;;;;16.82;58.11;102015.13;10542515;28;20048;-60
2023/10/16 17:35:46;;;;;;;1999.90;999.90;;;;;;;16.73;58.90;102006.00;10489012;22;20052;-66
2023/10/16 17:40:49;;;;;;;1999.90;999.90;;;;;;;16.54;58.67;102006.28;10353329;28;20077;-66
2023/10/16 17:45:53;;;;;;;1999.90;999.90;;;;;;;16.57;58.04;102013.19;10370287;28;20050;-66
2023/10/16 17:50:56;;;;;;;1999.90;999.90;;;;;;;16.51;58.50;102009.16;10370789;28;20099;-66
2023/10/16 17:55:59;;;;;;;1999.90;999.90;;;;;;;16.33;58.35;102013.78;10369405;28;20111;-66
2023/10/16 18:01:02;;;;;;;1999.90;999.90;;;;;;;16.20;58.51;102018.13;10352156;28;20058;-66
2023/10/16 18:06:05;;;;;;;1999.90;999.90;;;;;;;16.05;59.59;102022.56;10369878;28;20042;-67
2023/10/16 18:11:13;;;;;;;1999.90;999.90;;;;;;;16.55;57.54;102036.25;10370139;28;20054;-66
2023/10/16 18:16:21;;;;;;;1999.90;999.90;;;;;;;16.38;58.44;102042.59;10353120;28;20050;-66
2023/10/16 18:21:24;;;;;;;1999.90;999.90;;;;;;;16.20;59.39;102034.84;10369428;28;20054;-67
2023/10/16 18:26:27;;;;;;;1999.90;999.90;;;;;;;16.33;59.73;102027.00;10369738;28;20058;-66
2023/10/16 18:31:36;;;;;;;1999.90;999.90;;;;;;;16.44;58.29;102015.75;10369090;28;20056;-66
2023/10/16 18:36:40;;;;;;;1999.90;999.90;;;;;;;16.50;59.06;102012.72;10352212;28;20046;-66
2023/10/16 18:41:44;;;;;;;1999.90;999.90;;;;;;;16.47;59.40;102003.19;10351457;28;20566;-66
2023/10/16 18:46:47;;;;;;;1999.90;999.90;;;;;;;16.49;58.57;102000.44;10368018;28;20054;-66
2023/10/16 18:51:50;;;;;;;1999.90;999.90;;;;;;;16.51;58.46;102004.72;10350521;28;20061;-67
2023/10/16 18:56:52;;;;;;;1999.90;999.90;;;;;;;16.37;59.27;102014.44;10351783;28;20116;-66
2023/10/16 19:01:55;;;;;;;1999.90;999.90;;;;;;;16.49;59.25;102018.94;10358245;28;20058;-66
2023/10/16 19:06:57;;;;;;;1999.90;999.90;;;;;;;16.02;59.67;102031.56;10374799;28;20054;-66
2023/10/16 19:12:01;;;;;;;1999.90;999.90;;;;;;;16.21;59.11;102022.50;10374614;28;20409;-66
2023/10/16 19:17:04;;;;;;;1999.90;999.90;;;;;;;16.10;59.72;102029.25;10374449;28;20050;-66
2023/10/16 19:22:06;;;;;;;1999.90;999.90;;;;;;;16.41;59.15;102021.22;10374351;28;20486;-66
2023/10/16 19:27:08;;;;;;;1999.90;999.90;;;;;;;16.24;59.52;102015.22;10374261;28;20109;-66
2023/10/16 19:32:14;;;;;;;1999.90;999.90;;;;;;;16.10;59.65;102010.78;10357323;28;20049;-66
2023/10/16 19:37:20;;;;;;;1999.90;999.90;;;;;;;16.04;59.87;102010.28;10374312;28;20133;-66
2023/10/16 19:42:22;;;;;;;1999.90;999.90;;;;;;;16.70;57.73;102006.19;10357556;28;20057;-66
2023/10/16 19:47:25;;;;;;;1999.90;999.90;;;;;;;16.03;60.10;102014.75;10357021;28;20046;-67
2023/10/16 19:52:28;;;;;;;1999.90;999.90;;;;;;;16.10;59.31;102012.56;10373438;28;20514;-66
2023/10/16 19:57:31;;;;;;;1999.90;999.90;;;;;;;16.02;58.99;102010.41;10373162;28;20406;-66
2023/10/16 20:02:33;;;;;;;1999.90;999.90;;;;;;;15.93;59.08;102009.16;10373626;28;20129;-66
2023/10/16 20:07:36;;;;;;;1999.90;999.90;;;;;;;15.97;58.72;102013.34;10373842;28;20402;-66
2023/10/16 20:12:38;;;;;;;1999.90;999.90;;;;;;;15.90;59.38;102016.44;10373407;28;20083;-67
2023/10/16 20:17:42;;;;;;;1999.90;999.90;;;;;;;15.68;59.50;102012.41;10373164;28;20046;-67
2023/10/16 20:22:48;;;;;;;1999.90;999.90;;;;;;;15.63;59.79;102019.75;10373041;28;20049;-66
2023/10/16 20:27:51;;;;;;;1999.90;999.90;;;;;;;15.84;59.09;102022.94;10355822;28;20050;-67
2023/10/16 20:32:57;;;;;;;1999.90;999.90;;;;;;;15.59;60.18;102027.00;10372826;28;20062;-66
2023/10/16 20:38:02;;;;;;;1999.90;999.90;;;;;;;15.54;59.88;102023.78;10339048;28;20050;-66
2023/10/16 20:43:06;;;;;;;1999.90;999.90;;;;;;;15.52;59.66;102022.19;10355125;28;20128;-67
2023/10/16 20:48:10;;;;;;;1999.90;999.90;;;;;;;15.36;59.42;102027.50;10355750;28;20050;-66
2023/10/16 20:53:13;;;;;;;1999.90;999.90;;;;;;;15.72;59.39;102026.28;10354936;28;20046;-66
2023/10/16 20:58:18;;;;;;;1999.90;999.90;;;;;;;15.92;57.49;102023.31;10371932;28;20054;-66
2023/10/16 21:03:21;;;;;;;1999.90;999.90;;;;;;;15.30;59.87;102018.16;10371202;28;20046;-66
2023/10/16 21:08:24;;;;;;;1999.90;999.90;;;;;;;15.24;59.72;102024.63;10371829;28;20050;-66
2023/10/16 21:13:28;;;;;;;1999.90;999.90;;;;;;;15.60;59.20;102023.44;10371470;28;20228;-67
2023/10/16 21:18:31;;;;;;;1999.90;999.90;;;;;;;15.51;59.18;102025.75;10371210;28;20125;-66
2023/10/16 21:23:33;;;;;;;1999.90;999.90;;;;;;;15.20;60.12;102027.53;10337761;28;20125;-66
2023/10/16 21:28:37;;;;;;;1999.90;999.90;;;;;;;15.00;60.36;102016.34;10353883;28;20046;-66
2023/10/16 21:33:39;;;;;;;1999.90;999.90;;;;;;;15.15;59.29;102022.53;10370908;28;20125;-66
2023/10/16 21:38:41;;;;;;;1999.90;999.90;;;;;;;15.26;59.06;102023.69;10370332;28;20053;-66
2023/10/16 21:43:44;;;;;;;1999.90;999.90;;;;;;;15.10;59.58;102027.22;10353258;28;20056;-66
2023/10/16 21:48:46;;;;;;;1999.90;999.90;;;;;;;14.88;59.72;102034.63;10370381;28;20052;-66
2023/10/16 21:53:50;;;;;;;1999.90;999.90;;;;;;;14.57;60.00;102037.13;10370438;28;20050;-66
2023/10/16 21:58:53;;;;;;;1999.90;999.90;;;;;;;14.73;60.05;102041.63;10352264;28;20050;-66
2023/10/16 22:03:55;;;;;;;1999.90;999.90;;;;;;;14.79;59.93;102038.63;10369288;28;20413;-66
2023/10/16 22:08:59;;;;;;;1999.90;999.90;;;;;;;14.76;60.21;102022.97;10369802;28;20053;-66
2023/10/16 22:14:02;;;;;;;1999.90;999.90;;;;;;;14.79;59.45;102030.72;10352271;28;20054;-67
2023/10/16 22:19:04;;;;;;;1999.90;999.90;;;;;;;14.85;59.77;102020.69;10369357;28;20049;-66
2023/10/16 22:24:12;;;;;;;1999.90;999.90;;;;;;;14.86;60.06;102018.88;10369304;28;20056;-67
2023/10/16 22:29:15;;;;;;;1999.90;999.90;;;;;;;15.35;58.95;102004.72;10336667;28;20050;-66
2023/10/16 22:34:17;;;;;;;1999.90;999.90;;;;;;;15.21;59.04;102002.84;10350055;28;20395;-66
2023/10/16 22:39:20;;;;;;;1999.90;999.90;;;;;;;15.21;60.00;101993.16;10368459;28;20092;-67
2023/10/16 22:44:23;;;;;;;1999.90;999.90;;;;;;;14.83;59.53;101990.94;10368186;28;20410;-66
2023/10/16 22:49:26;;;;;;;1999.90;999.90;;;;;;;14.70;60.84;102002.25;10368685;28;20120;-66
2023/10/16 22:54:28;;;;;;;1999.90;999.90;;;;;;;14.71;60.40;102004.81;10369024;28;20049;-66
2023/10/16 22:59:31;;;;;;;1999.90;999.90;;;;;;;14.84;60.05;102004.94;10368334;28;20050;-66
2023/10/16 23:04:40;;;;;;;1999.90;999.90;;;;;;;15.11;58.88;101983.22;10367681;28;20129;-67
2023/10/16 23:09:46;;;;;;;1999.90;999.90;;;;;;;14.83;59.31;101987.44;10368158;28;20049;-67
2023/10/16 23:20:50;;;;;;;1999.90;999.90;;;;;;;15.26;59.00;101984.97;10367927;28;20056;-67
2023/10/16 23:26:00;;;;;;;1999.90;999.90;;;;;;;15.12;58.65;101990.22;10350305;28;20479;-67
2023/10/16 23:31:06;;;;;;;1999.90;999.90;;;;;;;14.78;59.92;101981.59;10350356;28;20050;-67
2023/10/16 23:36:12;;;;;;;1999.90;999.90;;;;;;;14.63;59.20;101980.66;10350565;28;20086;-66
2023/10/16 23:41:18;;;;;;;1999.90;999.90;;;;;;;14.51;60.31;101979.50;10367975;28;20087;-66
2023/10/16 23:46:21;;;;;;;1999.90;999.90;;;;;;;14.92;60.85;101992.19;10372194;28;20392;-67
2023/10/16 23:51:23;;;;;;;1999.90;999.90;;;;;;;14.73;60.76;101981.00;10373473;28;20482;-67
2023/10/16 23:56:37;;;;;;;1999.90;999.90;;;;;;;14.25;61.64;101979.13;10356517;28;20050;-66
